Time;durP1;ratioP1;P1;durP2;ratioP2;P2;SDS_P1;SDS_P2;PMS_P1;PMS_P2;Temp;Humidity;BMP_temperature;BMP_pressure;BME280_temperature;BME280_humidity;BME280_pressure;Samples;Min_cycle;Max_cycle;Signal;HPM_P1;HPM_P2
2022/06/11 00:01:15;;;;;;;;;;;16.90;99.90;;;;;;5052486;28;20053;-80
2022/06/11 00:03:41;;;;;;;12.38;6.25;;;16.90;99.90;;;;;;5051989;28;19929;-81
2022/06/11 00:06:06;;;;;;;14.35;6.18;;;16.90;99.90;;;;;;5051690;28;20055;-80
2022/06/11 00:08:33;;;;;;;9.75;5.80;;;16.90;99.90;;;;;;5035184;28;20045;-84
2022/06/11 00:10:59;;;;;;;8.95;5.43;;;16.90;99.90;;;;;;5051816;28;20045;-81
2022/06/11 00:13:25;;;;;;;10.98;5.88;;;16.80;99.90;;;;;;5052456;28;20132;-81
2022/06/11 00:15:53;;;;;;;10.18;5.72;;;16.80;99.90;;;;;;5052897;28;20132;-81
2022/06/11 00:18:20;;;;;;;14.93;5.68;;;16.80;99.90;;;;;;5051618;28;20059;-88
2022/06/11 00:20:47;;;;;;;9.13;4.80;;;16.70;99.90;;;;;;5052647;28;20056;-81
2022/06/11 00:23:13;;;;;;;10.23;5.13;;;16.60;99.90;;;;;;5051444;28;20418;-80
2022/06/11 00:25:38;;;;;;;14.05;5.47;;;16.50;99.90;;;;;;5051545;28;20053;-80
2022/06/11 00:28:05;;;;;;;11.43;4.82;;;16.50;99.90;;;;;;5034791;28;20076;-81
2022/06/11 00:30:32;;;;;;;11.82;5.15;;;16.40;99.90;;;;;;5051652;28;20095;-80
2022/06/11 00:32:57;;;;;;;14.15;5.47;;;16.40;99.90;;;;;;5051313;28;20052;-80
2022/06/11 00:35:25;;;;;;;12.40;5.22;;;16.30;99.90;;;;;;5052464;28;20041;-81
2022/06/11 00:37:51;;;;;;;9.73;4.72;;;16.30;99.90;;;;;;5052351;28;20052;-86
2022/06/11 00:40:19;;;;;;;12.38;5.00;;;16.30;99.90;;;;;;5051607;28;20060;-80
2022/06/11 00:42:45;;;;;;;13.02;5.22;;;16.20;99.90;;;;;;5052284;28;20095;-81
2022/06/11 00:45:16;;;;;;;11.35;5.07;;;16.20;99.90;;;;;;5052156;28;20124;-80
2022/06/11 00:47:45;;;;;;;10.02;4.95;;;16.10;99.90;;;;;;5052049;28;20558;-81
2022/06/11 00:50:30;;;;;;;11.68;5.68;;;16.00;99.90;;;;;;5052316;28;20132;-81
2022/06/11 00:52:58;;;;;;;14.20;5.00;;;15.90;99.90;;;;;;5051487;28;20140;-81
2022/06/11 00:55:36;;;;;;;9.98;5.13;;;16.00;99.90;;;;;;5051981;28;20041;-83
2022/06/11 00:58:10;;;;;;;14.07;5.57;;;16.00;99.90;;;;;;5052477;28;20123;-81
2022/06/11 01:00:42;;;;;;;13.45;5.65;;;16.10;99.90;;;;;;5034299;28;20065;-81
2022/06/11 01:03:15;;;;;;;12.07;4.97;;;16.10;99.90;;;;;;5051372;28;20084;-81
2022/06/11 01:05:45;;;;;;;15.32;5.68;;;16.10;99.90;;;;;;5034651;28;20112;-81
2022/06/11 01:08:36;;;;;;;13.23;5.82;;;16.00;99.90;;;;;;5051953;28;20037;-80
2022/06/11 01:11:10;;;;;;;16.27;5.65;;;15.90;99.90;;;;;;5051317;28;20056;-81
2022/06/11 01:13:50;;;;;;;14.63;5.68;;;15.80;99.90;;;;;;5051168;28;20061;-81
2022/06/11 01:16:41;;;;;;;10.88;6.07;;;15.70;99.90;;;;;;5051002;28;20045;-81
2022/06/11 01:19:34;;;;;;;13.52;5.72;;;15.50;99.90;;;;;;5051300;28;20137;-84
2022/06/11 01:22:26;;;;;;;9.85;6.07;;;15.40;99.90;;;;;;5051998;28;20080;-81
2022/06/11 01:25:33;;;;;;;13.88;6.75;;;15.30;99.90;;;;;;5051906;28;20049;-80
2022/06/11 01:28:17;;;;;;;10.18;6.55;;;15.10;99.90;;;;;;4993977;28;20097;-81
2022/06/11 01:30:50;;;;;;;17.20;7.45;;;15.00;99.90;;;;;;5010007;28;20054;-81
2022/06/11 01:33:38;;;;;;;15.27;6.88;;;14.90;99.90;;;;;;5009979;28;20145;-80
2022/06/11 01:36:11;;;;;;;13.80;7.60;;;14.80;99.90;;;;;;4996166;28;20530;-81
2022/06/11 01:38:42;;;;;;;17.52;7.85;;;14.70;99.90;;;;;;4997166;28;20056;-80
2022/06/11 01:41:30;;;;;;;17.00;8.40;;;14.70;99.90;;;;;;4981201;28;20173;-81
2022/06/11 01:44:04;;;;;;;16.70;7.90;;;14.60;99.90;;;;;;5013506;28;20083;-80
2022/06/11 01:46:51;;;;;;;13.18;7.88;;;14.60;99.90;;;;;;4997473;28;20517;-80
2022/06/11 01:49:23;;;;;;;15.48;8.40;;;14.60;99.90;;;;;;5013404;28;20049;-80
2022/06/11 01:52:26;;;;;;;17.10;7.32;;;14.60;99.90;;;;;;4997171;28;20045;-81
2022/06/11 01:55:18;;;;;;;13.05;7.10;;;14.60;99.90;;;;;;5013454;28;20054;-85
2022/06/11 01:57:43;;;;;;;;;;;14.70;99.90;;;;;;4997328;28;20093;-81
2022/06/11 02:00:22;;;;;;;17.77;8.07;;;14.70;99.90;;;;;;4997215;28;19973;-80
2022/06/11 02:03:02;;;;;;;12.77;7.63;;;14.70;99.90;;;;;;5008556;28;20102;-80
2022/06/11 02:05:39;;;;;;;15.43;7.07;;;14.70;99.90;;;;;;5055149;28;20045;-81
2022/06/11 02:08:14;;;;;;;13.60;8.00;;;14.60;99.90;;;;;;5054030;28;20040;-80
2022/06/11 02:11:13;;;;;;;15.13;8.82;;;14.60;99.90;;;;;;5054873;28;20044;-80
2022/06/11 02:13:56;;;;;;;19.75;9.35;;;14.50;99.90;;;;;;5053999;28;20056;-80
2022/06/11 02:16:26;;;;;;;15.32;10.73;;;14.40;99.90;;;;;;5054747;28;20041;-80
2022/06/11 02:18:54;;;;;;;23.70;11.05;;;14.40;99.90;;;;;;5053880;28;20451;-90
2022/06/11 02:21:25;;;;;;;16.25;10.55;;;14.40;99.90;;;;;;5053747;28;20091;-81
2022/06/11 02:24:04;;;;;;;19.88;11.02;;;14.40;99.90;;;;;;5054705;28;20045;-82
2022/06/11 02:26:34;;;;;;;19.20;11.50;;;14.30;99.90;;;;;;5054778;28;20379;-80
2022/06/11 02:29:03;;;;;;;27.75;12.00;;;14.30;99.90;;;;;;5053137;28;20057;-80
2022/06/11 02:31:34;;;;;;;21.00;13.95;;;14.20;99.90;;;;;;5054727;28;20437;-80
2022/06/11 02:34:07;;;;;;;30.38;14.65;;;14.20;99.90;;;;;;5036849;28;20056;-81
2022/06/11 02:36:45;;;;;;;30.08;16.48;;;14.30;99.90;;;;;;5053238;28;20194;-81
2022/06/11 02:39:12;;;;;;;22.20;12.75;;;14.30;99.90;;;;;;5054452;28;20136;-80
2022/06/11 02:41:38;;;;;;;29.85;15.35;;;14.30;99.90;;;;;;5036672;28;20172;-80
2022/06/11 02:44:04;;;;;;;27.17;14.13;;;14.20;99.90;;;;;;5036619;28;20096;-81
2022/06/11 02:46:41;;;;;;;25.88;16.77;;;14.30;99.90;;;;;;5054103;28;20095;-80
2022/06/11 02:49:23;;;;;;;23.45;14.40;;;14.30;99.90;;;;;;5054252;28;20127;-80
2022/06/11 02:51:51;;;;;;;26.27;15.10;;;14.30;99.90;;;;;;5053319;28;20080;-80
2022/06/11 02:54:18;;;;;;;27.98;16.33;;;14.20;99.90;;;;;;5053145;28;20053;-80
2022/06/11 02:56:45;;;;;;;28.33;16.23;;;14.20;99.90;;;;;;5052855;28;20494;-80
2022/06/11 02:59:11;;;;;;;19.45;13.23;;;14.30;99.90;;;;;;5052981;28;20055;-81
2022/06/11 03:01:37;;;;;;;22.13;13.95;;;14.20;99.90;;;;;;5052716;28;20124;-81
2022/06/11 03:04:03;;;;;;;20.60;13.65;;;14.40;99.90;;;;;;5052964;28;20048;-81
2022/06/11 03:06:30;;;;;;;22.75;13.63;;;14.30;99.90;;;;;;5053961;28;20082;-81
2022/06/11 03:08:57;;;;;;;20.23;13.60;;;14.30;99.90;;;;;;5052836;28;20085;-80
2022/06/11 03:11:23;;;;;;;28.45;13.35;;;14.20;99.90;;;;;;5053838;28;20049;-81
2022/06/11 03:13:49;;;;;;;24.15;13.13;;;14.30;99.90;;;;;;5052515;28;20052;-80
2022/06/11 03:16:15;;;;;;;17.15;11.43;;;14.30;99.90;;;;;;5053735;28;20080;-81
2022/06/11 03:18:40;;;;;;;19.67;11.70;;;14.20;99.90;;;;;;5053840;28;20041;-81
2022/06/11 03:21:07;;;;;;;20.10;10.50;;;14.30;99.90;;;;;;5052457;28;20075;-81
2022/06/11 03:23:32;;;;;;;19.75;10.20;;;14.30;99.90;;;;;;5052415;28;20075;-80
2022/06/11 03:25:59;;;;;;;16.33;8.90;;;14.30;99.90;;;;;;5052407;28;20045;-80
2022/06/11 03:28:27;;;;;;;12.38;8.02;;;14.30;99.90;;;;;;5053419;28;20080;-82
2022/06/11 03:30:54;;;;;;;15.95;8.18;;;14.30;99.90;;;;;;5053370;28;20498;-80
2022/06/11 03:33:22;;;;;;;18.85;7.65;;;14.30;99.90;;;;;;5052407;28;20045;-81
2022/06/11 03:35:49;;;;;;;18.58;7.15;;;14.30;99.90;;;;;;5052315;28;20040;-80
2022/06/11 03:38:16;;;;;;;14.05;6.22;;;14.20;99.90;;;;;;5053291;28;20124;-80
2022/06/11 03:40:42;;;;;;;14.13;6.30;;;14.10;99.90;;;;;;5053161;28;20057;-80
2022/06/11 03:43:09;;;;;;;17.42;5.95;;;14.30;99.90;;;;;;5053225;28;20090;-80
2022/06/11 03:45:36;;;;;;;16.58;5.63;;;14.30;99.90;;;;;;5035258;28;20041;-81
2022/06/11 03:48:04;;;;;;;13.98;5.65;;;14.30;99.90;;;;;;5053370;28;20047;-80
2022/06/11 03:50:34;;;;;;;22.77;5.63;;;14.30;99.90;;;;;;5053116;28;20052;-80
2022/06/11 03:53:00;;;;;;;9.27;4.68;;;14.30;99.90;;;;;;5052348;28;20049;-81
2022/06/11 03:55:27;;;;;;;14.52;4.25;;;14.30;99.90;;;;;;5051880;28;20052;-80
2022/06/11 03:57:54;;;;;;;11.35;4.03;;;14.20;99.90;;;;;;5051450;28;20055;-81
2022/06/11 04:03:09;;;;;;;16.15;3.53;;;14.20;99.90;;;;;;5053023;28;20402;-80
2022/06/11 04:05:37;;;;;;;18.10;3.85;;;14.20;99.90;;;;;;5052672;28;20041;-80
2022/06/11 04:08:04;;;;;;;11.38;3.47;;;14.20;99.90;;;;;;5051485;28;20132;-80
2022/06/11 04:10:30;;;;;;;13.63;3.88;;;14.20;99.90;;;;;;5051619;28;20060;-80
2022/06/11 04:12:56;;;;;;;11.75;3.22;;;14.20;99.90;;;;;;5052560;28;20154;-80
2022/06/11 04:15:22;;;;;;;13.13;3.53;;;14.30;99.90;;;;;;5052874;28;20045;-80
2022/06/11 04:17:48;;;;;;;13.32;3.60;;;14.30;99.90;;;;;;5034905;28;20509;-80
2022/06/11 04:20:14;;;;;;;13.98;3.53;;;14.40;99.90;;;;;;5052553;28;20067;-80
2022/06/11 04:22:41;;;;;;;16.63;3.53;;;14.30;99.90;;;;;;5051469;28;20100;-80
2022/06/11 04:25:10;;;;;;;14.65;3.70;;;14.40;99.90;;;;;;5052497;28;20041;-80
2022/06/11 04:27:36;;;;;;;17.40;3.67;;;14.30;99.90;;;;;;5052276;28;20049;-80
2022/06/11 04:30:02;;;;;;;10.02;3.70;;;14.30;99.90;;;;;;5052583;28;20044;-86
2022/06/11 04:32:29;;;;;;;14.20;3.88;;;14.30;99.90;;;;;;5052359;28;20041;-81
2022/06/11 04:34:55;;;;;;;13.98;4.00;;;14.40;99.90;;;;;;5052491;28;20041;-80
2022/06/11 04:37:25;;;;;;;13.70;4.50;;;14.30;99.90;;;;;;5051584;28;20057;-80
2022/06/11 04:39:54;;;;;;;12.57;3.80;;;14.40;99.90;;;;;;5051704;28;20441;-80
2022/06/11 04:42:22;;;;;;;14.65;4.47;;;14.40;99.90;;;;;;5051233;28;20053;-80
2022/06/11 04:44:48;;;;;;;13.25;4.13;;;14.40;99.90;;;;;;5051594;28;20084;-80
2022/06/11 04:47:21;;;;;;;14.50;4.35;;;14.40;99.90;;;;;;5051395;28;20087;-80
2022/06/11 04:49:48;;;;;;;8.05;4.43;;;14.40;99.90;;;;;;5051610;28;20036;-80
2022/06/11 04:52:14;;;;;;;12.55;4.25;;;14.50;99.90;;;;;;5052391;28;20441;-80
2022/06/11 04:54:40;;;;;;;17.15;4.60;;;14.50;99.90;;;;;;5052229;28;20049;-80
2022/06/11 04:57:05;;;;;;;15.20;4.78;;;14.60;99.90;;;;;;5052046;28;20513;-80
2022/06/11 04:59:32;;;;;;;13.88;4.90;;;14.60;99.90;;;;;;5051284;28;20465;-84
2022/06/11 05:01:59;;;;;;;14.52;5.30;;;14.60;99.90;;;;;;5051598;28;20437;-80
2022/06/11 05:04:25;;;;;;;10.63;4.57;;;14.70;99.90;;;;;;5052362;28;20053;-80
2022/06/11 05:06:52;;;;;;;10.88;4.70;;;14.70;99.90;;;;;;5052509;28;20106;-80
2022/06/11 05:09:20;;;;;;;20.45;4.93;;;14.80;99.90;;;;;;5052113;28;20140;-81
2022/06/11 05:11:46;;;;;;;9.50;4.10;;;14.80;99.90;;;;;;5055727;28;20049;-81
2022/06/11 05:14:12;;;;;;;12.70;4.70;;;14.90;99.90;;;;;;5055278;28;20044;-81
2022/06/11 05:16:41;;;;;;;13.45;4.10;;;15.00;99.90;;;;;;5054825;28;20056;-80
2022/06/11 05:19:07;;;;;;;12.32;4.30;;;15.10;99.90;;;;;;5055139;28;20127;-80
2022/06/11 05:21:33;;;;;;;16.75;4.80;;;15.20;99.90;;;;;;5054955;28;20405;-81
2022/06/11 05:23:59;;;;;;;12.18;4.68;;;15.20;99.90;;;;;;5054920;28;20049;-80
2022/06/11 05:26:35;;;;;;;14.77;4.53;;;15.30;99.90;;;;;;5055685;28;20076;-81
2022/06/11 05:29:02;;;;;;;14.50;4.55;;;15.30;99.90;;;;;;5056030;28;20048;-82
2022/06/11 05:31:29;;;;;;;13.27;4.55;;;15.40;99.90;;;;;;5055751;28;20128;-81
2022/06/11 05:33:54;;;;;;;13.30;3.90;;;15.50;99.90;;;;;;5055814;28;20041;-80
2022/06/11 05:36:20;;;;;;;13.57;3.95;;;15.50;99.90;;;;;;5055465;28;20097;-81
2022/06/11 05:38:46;;;;;;;14.52;4.15;;;15.60;99.90;;;;;;5054609;28;20123;-82
2022/06/11 05:41:12;;;;;;;21.77;3.95;;;15.70;99.90;;;;;;5055368;28;20076;-80
2022/06/11 05:43:38;;;;;;;15.38;3.80;;;15.70;99.90;;;;;;5055362;28;20882;-80
2022/06/11 05:46:20;;;;;;;12.57;3.42;;;15.80;99.90;;;;;;5054419;28;20083;-80
2022/06/11 05:48:50;;;;;;;12.88;3.53;;;16.00;99.90;;;;;;5054274;28;20084;-80
2022/06/11 05:51:21;;;;;;;15.27;3.60;;;16.00;99.90;;;;;;5037917;28;20102;-81
2022/06/11 05:53:50;;;;;;;16.88;4.13;;;16.10;99.90;;;;;;5053785;28;20061;-80
2022/06/11 05:56:18;;;;;;;14.25;3.88;;;16.10;99.90;;;;;;5055346;28;20060;-80
2022/06/11 05:58:49;;;;;;;13.55;3.70;;;16.20;99.90;;;;;;5053930;28;20876;-80
2022/06/11 06:01:17;;;;;;;19.20;3.85;;;16.20;99.90;;;;;;5037606;28;20064;-80
2022/06/11 06:03:42;;;;;;;16.23;3.70;;;16.30;99.90;;;;;;5054369;28;20053;-80
2022/06/11 06:06:08;;;;;;;15.40;3.80;;;16.40;99.90;;;;;;5053617;28;20075;-81
2022/06/11 06:08:34;;;;;;;15.20;3.90;;;16.50;99.90;;;;;;5054020;28;20499;-80
2022/06/11 06:10:59;;;;;;;21.40;4.35;;;16.50;99.90;;;;;;5053820;28;20061;-81
2022/06/11 06:16:09;;;;;;;20.30;4.38;;;16.60;99.90;;;;;;5054437;28;20490;-82
2022/06/11 06:18:36;;;;;;;17.17;3.33;;;16.60;99.90;;;;;;5034853;28;20054;-82
2022/06/11 06:21:02;;;;;;;17.77;4.13;;;16.60;99.90;;;;;;5034094;28;20457;-80
2022/06/11 06:23:30;;;;;;;17.13;3.88;;;16.70;99.90;;;;;;5033976;28;20045;-81
2022/06/11 06:25:56;;;;;;;20.50;5.30;;;16.70;99.90;;;;;;5033870;28;20057;-81
2022/06/11 06:28:22;;;;;;;22.27;3.70;;;16.80;99.90;;;;;;5017406;28;20056;-81
2022/06/11 06:30:47;;;;;;;18.88;4.25;;;16.90;99.90;;;;;;5034603;28;20050;-81
2022/06/11 06:33:13;;;;;;;15.00;3.60;;;16.90;99.90;;;;;;5033604;28;20045;-80
2022/06/11 06:35:39;;;;;;;18.77;3.90;;;16.90;99.90;;;;;;5034236;28;20629;-81
2022/06/11 06:38:06;;;;;;;21.40;4.13;;;17.10;99.90;;;;;;5034564;28;20129;-81
2022/06/11 06:40:32;;;;;;;17.30;3.95;;;17.10;99.90;;;;;;5034924;28;20041;-81
2022/06/11 06:42:58;;;;;;;24.98;4.32;;;17.20;99.90;;;;;;5034565;28;20041;-83
2022/06/11 06:45:24;;;;;;;22.52;4.20;;;17.60;99.90;;;;;;5033462;28;20438;-82
2022/06/11 06:47:49;;;;;;;23.65;4.43;;;18.30;99.90;;;;;;5033573;28;20049;-82
2022/06/11 06:50:15;;;;;;;19.27;3.97;;;18.90;99.90;;;;;;5034053;28;20045;-83
2022/06/11 06:52:41;;;;;;;21.45;3.80;;;19.40;99.90;;;;;;5034239;28;20099;-81
2022/06/11 06:55:07;;;;;;;20.65;4.25;;;20.10;99.90;;;;;;5017052;28;20380;-82
2022/06/11 06:57:33;;;;;;;16.17;3.20;;;20.70;99.90;;;;;;5034308;28;20041;-83
2022/06/11 07:00:00;;;;;;;22.27;3.78;;;21.10;99.90;;;;;;5034116;28;20052;-81
2022/06/11 07:02:26;;;;;;;22.55;4.20;;;21.40;99.90;;;;;;5034294;28;20384;-82
2022/06/11 07:04:52;;;;;;;19.10;3.83;;;21.60;99.90;;;;;;5016126;28;20111;-81
2022/06/11 07:07:19;;;;;;;18.25;4.00;;;21.70;99.90;;;;;;5033977;28;20056;-81
2022/06/11 07:09:45;;;;;;;16.92;3.75;;;22.10;99.90;;;;;;5033144;28;20050;-81
2022/06/11 07:12:11;;;;;;;28.73;4.63;;;22.30;99.90;;;;;;5033095;28;20049;-82
2022/06/11 07:14:37;;;;;;;22.42;5.00;;;22.30;99.90;;;;;;5032668;28;20080;-82
2022/06/11 07:17:07;;;;;;;22.08;3.78;;;22.50;99.90;;;;;;5033651;28;20092;-82
2022/06/11 07:19:38;;;;;;;16.88;3.67;;;22.70;99.90;;;;;;5033669;28;20490;-82
2022/06/11 07:22:17;;;;;;;24.20;4.25;;;22.80;99.90;;;;;;5032438;28;20049;-82
2022/06/11 07:24:43;;;;;;;17.58;4.10;;;23.10;99.90;;;;;;5032857;28;20050;-82
2022/06/11 07:27:13;;;;;;;19.73;4.45;;;23.20;99.90;;;;;;5015894;28;20049;-82
2022/06/11 07:29:47;;;;;;;19.42;3.83;;;23.50;99.90;;;;;;5033622;28;20057;-82
2022/06/11 07:32:18;;;;;;;13.90;3.38;;;24.00;99.90;;;;;;5046367;28;20041;-82
2022/06/11 07:34:44;;;;;;;16.77;3.95;;;24.20;99.90;;;;;;5052226;28;20053;-81
2022/06/11 07:37:11;;;;;;;17.15;4.18;;;24.30;99.90;;;;;;5053862;28;20047;-82
2022/06/11 07:39:37;;;;;;;20.80;3.88;;;24.20;99.90;;;;;;5052724;28;20051;-82
2022/06/11 07:42:03;;;;;;;15.45;4.13;;;24.10;99.90;;;;;;5053352;28;20045;-82
2022/06/11 07:44:29;;;;;;;19.23;4.47;;;24.50;99.90;;;;;;5052351;28;20135;-82
2022/06/11 07:46:54;;;;;;;24.85;4.45;;;25.00;99.90;;;;;;5052327;28;20136;-84
2022/06/11 07:49:20;;;;;;;17.08;4.28;;;25.30;98.70;;;;;;5052131;28;20514;-82
2022/06/11 07:51:46;;;;;;;19.35;3.90;;;25.60;96.50;;;;;;5051979;28;20581;-82
2022/06/11 07:54:12;;;;;;;19.70;4.57;;;25.60;94.20;;;;;;5052210;28;20052;-83
2022/06/11 07:56:38;;;;;;;16.65;4.22;;;25.30;96.60;;;;;;5053311;28;20037;-82
2022/06/11 07:59:05;;;;;;;19.95;4.28;;;25.30;95.00;;;;;;5053681;28;20106;-83
2022/06/11 08:01:30;;;;;;;16.92;3.92;;;25.60;94.70;;;;;;5053138;28;20049;-82
2022/06/11 08:03:56;;;;;;;19.25;4.07;;;26.00;91.20;;;;;;5052846;28;20136;-84
2022/06/11 08:06:22;;;;;;;18.17;4.22;;;26.30;84.60;;;;;;5052231;28;20095;-83
2022/06/11 08:08:50;;;;;;;18.92;4.35;;;26.10;85.60;;;;;;5051793;28;20406;-82
2022/06/11 08:11:16;;;;;;;18.15;4.03;;;25.90;87.30;;;;;;5052975;28;20049;-82
2022/06/11 08:13:41;;;;;;;18.88;4.18;;;26.00;85.70;;;;;;5035280;28;20079;-82
2022/06/11 08:16:07;;;;;;;18.42;4.20;;;26.20;82.80;;;;;;5052282;28;20049;-83
2022/06/11 08:18:35;;;;;;;13.80;3.70;;;26.50;77.80;;;;;;5052963;28;20052;-85
2022/06/11 08:21:00;;;;;;;20.85;4.45;;;26.60;75.20;;;;;;5052924;28;20044;-83
2022/06/11 08:23:26;;;;;;;20.60;3.90;;;26.80;73.00;;;;;;5053713;28;20398;-83
2022/06/11 08:25:53;;;;;;;17.50;3.85;;;27.00;70.20;;;;;;5052803;28;20049;-83
2022/06/11 08:28:18;;;;;;;19.45;4.38;;;27.20;66.70;;;;;;5055533;28;20074;-83
2022/06/11 08:30:45;;;;;;;19.55;4.75;;;27.10;66.60;;;;;;5054842;28;20080;-87
2022/06/11 08:33:11;;;;;;;14.07;3.85;;;26.70;67.90;;;;;;5054947;28;20044;-84
2022/06/11 08:35:38;;;;;;;17.90;3.80;;;26.90;68.50;;;;;;5054181;28;20135;-83
2022/06/11 08:38:05;;;;;;;17.67;3.72;;;27.20;65.80;;;;;;5055569;28;20052;-83
2022/06/11 08:40:44;;;;;;;20.40;4.78;;;27.30;64.60;;;;;;5057774;28;20513;-83
2022/06/11 08:43:37;;;;;;;19.88;4.65;;;27.60;65.60;;;;;;5052050;28;20049;-83
2022/06/11 08:46:14;;;;;;;26.88;4.93;;;28.10;59.00;;;;;;5057348;28;20044;-83
2022/06/11 08:48:42;;;;;;;18.02;4.35;;;28.20;61.80;;;;;;5038537;28;20057;-83
2022/06/11 08:51:44;;;;;;;17.73;4.47;;;28.40;61.90;;;;;;5056153;28;20103;-83
2022/06/11 08:54:14;;;;;;;20.98;5.00;;;28.90;60.30;;;;;;5055536;28;20384;-85
2022/06/11 08:56:43;;;;;;;21.40;4.63;;;29.00;58.60;;;;;;5056809;28;20501;-83
2022/06/11 08:59:59;;;;;;;17.13;3.95;;;28.80;58.00;;;;;;5055845;28;20094;-83
2022/06/11 09:02:30;;;;;;;18.35;4.50;;;28.60;55.90;;;;;;5056547;28;20053;-83
2022/06/11 09:05:19;;;;;;;17.85;4.90;;;28.30;56.10;;;;;;5056353;28;20045;-83
2022/06/11 09:08:03;;;;;;;19.27;4.10;;;28.30;56.60;;;;;;4999753;28;20157;-83
2022/06/11 09:10:51;;;;;;;19.17;4.22;;;28.70;56.00;;;;;;4998854;28;20608;-84
2022/06/11 09:13:52;;;;;;;14.40;4.05;;;29.10;52.10;;;;;;4998259;28;20093;-88
2022/06/11 09:16:36;;;;;;;15.82;3.90;;;29.40;52.60;;;;;;5014106;28;20187;-90
2022/06/11 09:19:16;;;;;;;16.13;4.32;;;29.50;52.00;;;;;;4981330;28;20069;-83
2022/06/11 09:22:01;;;;;;;15.85;3.63;;;29.60;52.10;;;;;;4997721;28;20049;-82
2022/06/11 09:24:45;;;;;;;13.70;3.78;;;29.60;51.90;;;;;;4997734;28;20042;-86
2022/06/11 09:27:50;;;;;;;16.00;4.32;;;29.50;48.90;;;;;;4998013;28;20054;-83
2022/06/11 09:30:22;;;;;;;17.10;3.92;;;29.50;53.10;;;;;;4955803;29;20067;-84
2022/06/11 09:32:52;;;;;;;13.60;3.03;;;29.70;51.60;;;;;;4955435;29;20428;-84
2022/06/11 09:35:39;;;;;;;14.23;3.10;;;29.90;50.90;;;;;;4955426;29;20051;-86
2022/06/11 09:38:25;;;;;;;16.30;3.33;;;29.80;49.80;;;;;;4939283;29;20056;-83
2022/06/11 09:41:29;;;;;;;13.82;3.63;;;29.80;48.10;;;;;;4939216;29;20059;-85
2022/06/11 09:44:14;;;;;;;13.45;3.28;;;30.00;48.80;;;;;;4951853;28;20470;-83
2022/06/11 09:46:54;;;;;;;11.25;2.95;;;30.40;46.70;;;;;;4997183;28;20464;-84
2022/06/11 09:49:38;;;;;;;11.18;3.00;;;30.50;47.30;;;;;;5013797;28;20091;-84
2022/06/11 09:52:15;;;;;;;14.45;3.38;;;30.30;46.90;;;;;;4997505;28;20049;-83
2022/06/11 09:55:18;;;;;;;14.75;3.30;;;30.30;46.30;;;;;;5013666;28;20094;-85
2022/06/11 09:58:27;;;;;;;13.70;3.10;;;30.20;45.10;;;;;;5013438;28;20053;-84
2022/06/11 10:00:58;;;;;;;15.95;3.13;;;30.40;44.60;;;;;;4997184;28;20400;-85
2022/06/11 10:03:53;;;;;;;12.73;3.05;;;30.40;46.30;;;;;;4996938;28;20055;-84
2022/06/11 10:06:25;;;;;;;13.57;3.20;;;30.40;46.30;;;;;;5022093;28;20053;-83
2022/06/11 10:08:56;;;;;;;9.85;2.88;;;30.80;46.70;;;;;;5054308;28;20040;-84
2022/06/11 10:11:37;;;;;;;10.95;2.70;;;31.10;45.10;;;;;;5055384;28;20044;-85
2022/06/11 10:14:28;;;;;;;13.90;2.70;;;31.30;44.20;;;;;;5054079;28;20474;-84
2022/06/11 10:17:19;;;;;;;14.27;3.00;;;31.40;43.10;;;;;;5055245;28;20049;-84
2022/06/11 10:20:09;;;;;;;11.00;2.90;;;31.40;42.90;;;;;;5049876;28;20545;-83
2022/06/11 10:22:52;;;;;;;7.33;2.20;;;31.50;43.40;;;;;;5054068;28;20041;-84
2022/06/11 10:25:22;;;;;;;11.75;2.80;;;31.60;43.40;;;;;;5053861;28;20054;-89
2022/06/11 10:28:02;;;;;;;10.05;3.13;;;31.70;43.20;;;;;;5054949;28;20052;-84
2022/06/11 10:30:52;;;;;;;12.13;2.85;;;31.80;42.10;;;;;;5053826;28;20139;-85
2022/06/11 10:33:28;;;;;;;9.80;2.72;;;32.00;41.70;;;;;;5054831;28;20398;-83
2022/06/11 10:36:14;;;;;;;11.63;3.38;;;32.00;42.00;;;;;;5053667;28;20041;-83
2022/06/11 10:39:18;;;;;;;10.68;2.58;;;31.90;41.80;;;;;;5054475;28;20416;-83
2022/06/11 10:41:55;;;;;;;11.20;2.85;;;31.80;41.70;;;;;;5053765;28;20130;-89
2022/06/11 10:44:49;;;;;;;16.80;2.97;;;31.80;40.60;;;;;;5053592;28;20044;-83
2022/06/11 10:47:37;;;;;;;9.00;2.45;;;31.80;41.40;;;;;;5039276;28;20491;-83
2022/06/11 10:50:07;;;;;;;10.77;2.53;;;31.70;40.50;;;;;;5053520;28;20475;-84
2022/06/11 10:52:53;;;;;;;12.45;2.72;;;31.70;40.80;;;;;;5053398;28;20106;-83
2022/06/11 10:55:32;;;;;;;9.38;2.67;;;31.50;40.60;;;;;;5053215;28;20056;-84
2022/06/11 10:58:08;;;;;;;11.68;2.53;;;31.60;40.00;;;;;;5052968;28;20078;-83
2022/06/11 11:00:51;;;;;;;11.60;2.65;;;31.30;40.70;;;;;;5054458;28;20045;-84
2022/06/11 11:03:26;;;;;;;10.70;2.38;;;31.10;42.10;;;;;;5053154;28;20053;-84
2022/06/11 11:05:59;;;;;;;9.32;2.70;;;31.20;41.90;;;;;;5053123;28;20049;-84
2022/06/11 11:08:25;;;;;;;11.50;3.10;;;31.50;41.40;;;;;;5052845;28;20044;-84
2022/06/11 11:10:54;;;;;;;11.98;2.63;;;31.60;42.00;;;;;;5053945;28;20047;-84
2022/06/11 11:13:51;;;;;;;11.60;3.03;;;31.50;41.60;;;;;;5052985;28;20037;-85
2022/06/11 11:16:25;;;;;;;15.02;3.20;;;31.30;42.60;;;;;;5052609;28;20095;-85
2022/06/11 11:19:02;;;;;;;12.20;3.00;;;31.50;41.20;;;;;;5053027;28;20052;-84
2022/06/11 11:22:12;;;;;;;11.70;2.50;;;31.50;41.10;;;;;;5052527;28;20131;-84
2022/06/11 11:24:51;;;;;;;10.80;2.97;;;31.30;41.00;;;;;;4995772;28;20065;-83
2022/06/11 11:27:30;;;;;;;13.13;2.83;;;30.90;41.70;;;;;;5011828;28;20062;-85
2022/06/11 11:30:09;;;;;;;11.95;2.80;;;30.80;41.90;;;;;;4995363;28;20200;-90
2022/06/11 11:32:35;;;;;;;10.98;2.88;;;30.70;42.90;;;;;;4995241;28;20177;-84
2022/06/11 11:35:26;;;;;;;12.85;2.97;;;30.90;42.50;;;;;;4995462;28;20081;-84
2022/06/11 11:38:02;;;;;;;12.88;2.97;;;31.00;40.60;;;;;;4995459;28;20515;-85
2022/06/11 11:40:42;;;;;;;11.93;2.78;;;30.90;41.30;;;;;;4995329;28;20058;-84
2022/06/11 11:43:11;;;;;;;11.18;3.03;;;30.70;42.30;;;;;;5011547;28;20089;-86
2022/06/11 11:45:54;;;;;;;10.90;2.55;;;30.80;42.40;;;;;;4995262;28;20460;-84
2022/06/11 11:48:36;;;;;;;11.80;3.05;;;31.10;43.10;;;;;;5011407;28;20477;-84
2022/06/11 11:51:26;;;;;;;13.40;2.88;;;31.30;42.50;;;;;;4995176;28;20088;-85
2022/06/11 11:53:58;;;;;;;12.45;3.05;;;31.60;41.50;;;;;;4995530;28;20499;-86
2022/06/11 11:56:33;;;;;;;12.13;3.00;;;31.70;41.20;;;;;;4978649;28;20539;-85
2022/06/11 11:59:14;;;;;;;15.57;3.65;;;31.50;40.80;;;;;;5031232;28;20144;-85
2022/06/11 12:01:40;;;;;;;15.25;3.40;;;31.30;41.60;;;;;;5052612;28;20048;-84
2022/06/11 12:04:41;;;;;;;10.98;2.78;;;31.30;42.70;;;;;;5035447;28;20088;-84
2022/06/11 12:07:14;;;;;;;13.50;3.10;;;31.50;43.80;;;;;;4994596;28;20446;-84
2022/06/11 12:09:47;;;;;;;13.48;2.83;;;32.00;44.60;;;;;;4978404;28;20389;-84
2022/06/11 12:12:21;;;;;;;11.65;3.20;;;32.60;41.40;;;;;;4994407;28;20065;-84
2022/06/11 12:14:51;;;;;;;12.70;2.90;;;32.60;39.90;;;;;;4994415;28;20056;-85
2022/06/11 12:17:38;;;;;;;14.25;3.17;;;32.40;40.10;;;;;;5010657;28;20046;-84
2022/06/11 12:20:11;;;;;;;10.02;3.13;;;32.50;40.60;;;;;;4977881;28;20069;-84
2022/06/11 12:22:44;;;;;;;14.75;2.92;;;32.80;40.90;;;;;;5010985;28;20057;-84
2022/06/11 12:25:39;;;;;;;10.93;3.13;;;33.10;40.30;;;;;;5010775;28;20061;-84
2022/06/11 12:28:05;;;;;;;10.52;3.28;;;33.10;39.70;;;;;;4978260;28;20061;-84
2022/06/11 12:30:31;;;;;;;13.85;3.40;;;33.10;40.20;;;;;;4994216;28;20057;-85
2022/06/11 12:32:59;;;;;;;10.95;3.05;;;32.80;40.90;;;;;;5010698;28;20164;-86
2022/06/11 12:35:49;;;;;;;15.23;3.38;;;32.70;40.00;;;;;;4994307;28;20046;-84
2022/06/11 12:38:24;;;;;;;12.13;3.03;;;32.50;40.00;;;;;;4994275;28;20058;-84
2022/06/11 12:41:04;;;;;;;13.52;2.60;;;32.10;40.90;;;;;;5010780;28;20050;-84
2022/06/11 12:43:47;;;;;;;;;;;32.00;41.10;;;;;;5019216;28;20613;-84
2022/06/11 12:46:19;;;;;;;11.77;3.10;;;32.20;40.30;;;;;;5051526;28;19921;-84
2022/06/11 12:48:56;;;;;;;13.77;3.28;;;32.20;41.20;;;;;;5051324;28;20124;-85
2022/06/11 12:51:45;;;;;;;12.05;3.15;;;32.40;40.80;;;;;;5052363;28;20048;-84
2022/06/11 12:54:37;;;;;;;13.60;3.22;;;32.40;41.60;;;;;;4994176;28;20453;-86
2022/06/11 12:57:14;;;;;;;11.40;3.08;;;32.60;41.70;;;;;;4935952;29;20063;-84
2022/06/11 13:00:14;;;;;;;13.15;3.08;;;32.70;41.60;;;;;;4952116;29;20062;-85
2022/06/11 13:03:01;;;;;;;10.40;3.42;;;32.80;41.00;;;;;;4879756;29;20104;-84
2022/06/11 13:05:39;;;;;;;12.85;2.90;;;32.80;40.80;;;;;;4879613;29;20060;-85
2022/06/11 13:08:21;;;;;;;12.27;2.85;;;32.80;41.60;;;;;;4879460;29;20613;-85
2022/06/11 13:11:24;;;;;;;12.43;3.20;;;33.30;41.70;;;;;;4879559;29;20060;-85
2022/06/11 13:14:21;;;;;;;9.80;2.50;;;33.70;38.90;;;;;;4894934;29;20543;-84
2022/06/11 13:17:02;;;;;;;12.50;3.40;;;33.30;41.00;;;;;;4894680;29;20108;-85